Time;durP1;ratioP1;P1;durP2;ratioP2;P2;SDS_P1;SDS_P2;PMS_P1;PMS_P2;Temp;Humidity;BMP_temperature;BMP_pressure;BME280_temperature;BME280_humidity;BME280_pressure;Samples;Min_cycle;Max_cycle;Signal;HPM_P1;HPM_P2
2022/11/23 00:00:35;;;;;;;7.72;1.20;;;7.80;92.30;;;;;;5134159;28;20424;-61
2022/11/23 00:03:00;;;;;;;6.38;1.30;;;7.80;92.20;;;;;;5134530;28;20333;-60
2022/11/23 00:05:28;;;;;;;3.92;0.85;;;7.80;92.00;;;;;;5134444;28;20037;-60
2022/11/23 00:07:53;;;;;;;5.25;1.17;;;7.80;91.80;;;;;;5134188;28;20031;-61
2022/11/23 00:10:20;;;;;;;2.42;1.80;;;7.80;91.90;;;;;;5134116;28;20026;-61
2022/11/23 00:12:46;;;;;;;6.93;2.95;;;7.80;91.80;;;;;;5134086;27;20030;-61
2022/11/23 00:15:13;;;;;;;3.05;1.65;;;7.80;91.70;;;;;;5137126;27;20027;-62
2022/11/23 00:17:39;;;;;;;2.90;1.17;;;7.90;91.60;;;;;;5138256;27;20534;-61
2022/11/23 00:20:07;;;;;;;6.13;1.70;;;7.90;91.30;;;;;;5137019;27;20103;-61
2022/11/23 00:22:33;;;;;;;8.52;1.98;;;7.90;91.40;;;;;;5137814;27;20038;-60
2022/11/23 00:24:58;;;;;;;5.70;1.42;;;8.00;91.20;;;;;;5138420;27;20027;-61
2022/11/23 00:27:24;;;;;;;6.63;1.42;;;8.10;91.00;;;;;;5138184;27;20029;-61
2022/11/23 00:29:49;;;;;;;6.55;1.52;;;8.10;90.70;;;;;;5138023;27;20078;-61
2022/11/23 00:32:15;;;;;;;3.92;1.20;;;8.10;90.70;;;;;;5137827;27;20098;-61
2022/11/23 00:34:41;;;;;;;3.08;1.45;;;8.20;90.60;;;;;;5137892;27;20015;-60
2022/11/23 00:37:07;;;;;;;3.53;1.55;;;8.10;90.40;;;;;;5137785;27;20529;-61
2022/11/23 00:39:32;;;;;;;2.10;1.30;;;8.10;90.20;;;;;;5137779;27;20520;-61
2022/11/23 00:41:58;;;;;;;4.45;1.55;;;8.10;90.20;;;;;;5137841;27;20027;-62
2022/11/23 00:44:23;;;;;;;5.95;1.48;;;8.10;90.10;;;;;;5137780;27;20085;-61
2022/11/23 00:46:49;;;;;;;6.50;1.60;;;8.20;90.00;;;;;;5136503;27;20042;-61
2022/11/23 00:49:15;;;;;;;6.93;1.40;;;8.30;89.70;;;;;;5137630;27;20098;-61
2022/11/23 00:51:40;;;;;;;9.77;2.40;;;8.30;89.40;;;;;;5137248;27;20076;-60
2022/11/23 00:54:06;;;;;;;2.90;1.13;;;8.30;89.40;;;;;;5137484;27;20024;-61
2022/11/23 00:56:33;;;;;;;5.20;1.27;;;8.30;89.30;;;;;;5137788;27;20023;-62
2022/11/23 00:59:01;;;;;;;4.50;1.45;;;8.30;89.60;;;;;;5137676;27;20027;-60
2022/11/23 01:01:29;;;;;;;4.57;1.90;;;8.30;89.90;;;;;;5137526;27;20069;-62
2022/11/23 01:03:57;;;;;;;8.57;1.90;;;8.20;90.00;;;;;;5137610;27;20390;-62
2022/11/23 01:06:25;;;;;;;3.75;1.00;;;8.20;90.20;;;;;;5137359;27;20050;-60
2022/11/23 01:08:53;;;;;;;7.35;1.63;;;8.30;90.40;;;;;;5137496;27;20069;-60
2022/11/23 01:11:20;;;;;;;5.05;1.50;;;8.20;90.50;;;;;;5137303;27;20143;-61
2022/11/23 01:13:46;;;;;;;14.02;1.92;;;8.20;90.60;;;;;;5137051;27;20486;-61
2022/11/23 01:16:26;;;;;;;5.35;1.90;;;8.20;90.60;;;;;;5137460;27;20047;-62
2022/11/23 01:19:04;;;;;;;3.90;1.52;;;8.30;90.60;;;;;;5137221;27;20101;-60
2022/11/23 01:21:31;;;;;;;4.15;2.15;;;8.30;90.50;;;;;;5137018;27;20023;-61
2022/11/23 01:23:57;;;;;;;8.48;1.50;;;8.30;90.50;;;;;;5136997;27;20027;-61
2022/11/23 01:26:23;;;;;;;7.10;1.50;;;8.30;90.50;;;;;;5136423;27;20538;-61
2022/11/23 01:28:49;;;;;;;4.97;1.58;;;8.30;90.60;;;;;;5137157;27;20058;-60
2022/11/23 01:31:23;;;;;;;4.88;1.70;;;8.30;90.60;;;;;;5136782;27;20019;-60
2022/11/23 01:33:57;;;;;;;4.00;1.83;;;8.30;90.60;;;;;;5137250;27;20027;-62
2022/11/23 01:36:25;;;;;;;4.38;1.73;;;8.30;90.50;;;;;;5137213;27;20035;-62
2022/11/23 01:38:51;;;;;;;9.82;1.75;;;8.30;90.50;;;;;;5137015;27;20034;-61
2022/11/23 01:41:20;;;;;;;6.75;2.10;;;8.30;90.50;;;;;;5136787;27;20043;-62
2022/11/23 01:43:46;;;;;;;6.10;1.80;;;8.30;90.70;;;;;;5137165;27;20486;-61
2022/11/23 01:46:12;;;;;;;5.55;1.42;;;8.20;90.80;;;;;;5136954;27;20064;-61
2022/11/23 01:48:54;;;;;;;5.65;2.40;;;8.20;91.10;;;;;;5137015;27;20475;-62
2022/11/23 01:51:25;;;;;;;9.57;2.03;;;8.20;91.20;;;;;;5137250;27;20378;-61
2022/11/23 01:53:53;;;;;;;6.95;2.15;;;8.10;91.30;;;;;;5136336;27;20112;-61
2022/11/23 01:56:23;;;;;;;6.88;2.05;;;8.20;91.50;;;;;;5136586;27;20493;-61
2022/11/23 01:58:52;;;;;;;6.78;1.73;;;8.20;91.60;;;;;;5136811;27;20019;-61
2022/11/23 02:01:18;;;;;;;11.35;2.17;;;8.20;91.70;;;;;;5136668;27;20297;-61
2022/11/23 02:03:47;;;;;;;10.90;1.88;;;8.10;91.70;;;;;;5136349;27;20019;-62
2022/11/23 02:06:20;;;;;;;10.27;2.53;;;8.20;91.70;;;;;;5136275;27;20031;-60
2022/11/23 02:08:47;;;;;;;8.13;1.60;;;8.10;91.70;;;;;;5136468;27;20023;-60
2022/11/23 02:11:15;;;;;;;5.40;1.75;;;8.20;91.80;;;;;;5136089;27;20076;-62
2022/11/23 02:13:43;;;;;;;7.13;1.98;;;8.20;91.60;;;;;;5135853;27;20054;-63
2022/11/23 02:16:09;;;;;;;4.30;1.55;;;8.20;91.70;;;;;;5135828;27;20023;-61
2022/11/23 02:18:36;;;;;;;10.48;2.75;;;8.20;91.70;;;;;;5135737;27;20027;-61
2022/11/23 02:21:03;;;;;;;5.70;1.73;;;8.20;91.60;;;;;;5135809;27;20020;-62
2022/11/23 02:23:54;;;;;;;10.98;2.03;;;8.20;91.50;;;;;;5135586;27;20066;-60
2022/11/23 02:26:27;;;;;;;3.53;1.73;;;8.20;91.40;;;;;;5136030;27;20486;-62
2022/11/23 02:32:22;;;;;;;4.68;2.65;;;8.20;91.30;;;;;;5135725;27;20022;-60
2022/11/23 02:34:49;;;;;;;6.93;1.88;;;8.30;91.30;;;;;;5135822;27;20023;-61
2022/11/23 02:37:15;;;;;;;6.72;1.90;;;8.20;91.10;;;;;;5134676;27;20019;-61
2022/11/23 02:39:45;;;;;;;2.90;1.23;;;8.30;91.20;;;;;;5135385;27;20015;-60
2022/11/23 02:42:10;;;;;;;4.27;1.67;;;8.30;90.70;;;;;;5135453;27;20382;-60
2022/11/23 02:44:58;;;;;;;4.00;1.70;;;8.30;90.70;;;;;;5135589;27;20033;-61
2022/11/23 02:47:23;;;;;;;10.60;1.83;;;8.30;90.60;;;;;;5135820;27;20023;-60
2022/11/23 02:49:49;;;;;;;7.10;2.58;;;8.40;90.30;;;;;;5135486;27;20110;-60
2022/11/23 02:52:17;;;;;;;6.65;1.40;;;8.40;90.20;;;;;;5134877;27;20068;-60
2022/11/23 02:54:42;;;;;;;6.65;1.65;;;8.30;90.20;;;;;;5135126;27;20356;-60
2022/11/23 02:57:08;;;;;;;6.32;1.45;;;8.50;89.80;;;;;;5135337;27;20049;-61
2022/11/23 02:59:34;;;;;;;5.93;1.48;;;8.50;89.40;;;;;;5135584;27;20034;-61
2022/11/23 03:02:02;;;;;;;4.80;3.25;;;8.50;89.50;;;;;;5135019;27;20063;-61
2022/11/23 03:04:27;;;;;;;9.10;1.50;;;8.50;89.40;;;;;;5135244;27;20057;-61
2022/11/23 03:06:53;;;;;;;2.28;1.00;;;8.50;89.20;;;;;;5135003;27;20406;-63
2022/11/23 03:09:19;;;;;;;6.22;1.48;;;8.60;89.00;;;;;;5134882;27;20022;-63
2022/11/23 03:11:44;;;;;;;9.13;1.45;;;8.60;88.50;;;;;;5134783;27;20019;-60
2022/11/23 03:14:10;;;;;;;10.07;1.40;;;8.60;88.70;;;;;;5135067;27;20114;-62
2022/11/23 03:16:36;;;;;;;5.25;1.25;;;8.60;88.40;;;;;;5135075;27;20383;-60
2022/11/23 03:19:02;;;;;;;4.15;1.27;;;8.60;88.50;;;;;;5134776;27;20023;-62
2022/11/23 03:21:28;;;;;;;5.88;1.45;;;8.70;88.40;;;;;;5134630;27;20496;-62
2022/11/23 03:23:54;;;;;;;5.90;1.70;;;8.60;88.20;;;;;;5134834;27;20055;-62
2022/11/23 03:26:20;;;;;;;5.75;1.27;;;8.70;88.00;;;;;;5134865;27;20019;-62
2022/11/23 03:28:46;;;;;;;5.35;1.10;;;8.70;88.00;;;;;;5134537;27;20429;-61
2022/11/23 03:31:11;;;;;;;28.58;5.07;;;8.80;87.70;;;;;;5134773;27;20015;-60
2022/11/23 03:33:37;;;;;;;2.28;1.15;;;8.80;87.70;;;;;;5133214;27;20033;-60
2022/11/23 03:36:03;;;;;;;3.92;1.13;;;8.80;87.50;;;;;;5134968;27;20052;-60
2022/11/23 03:38:29;;;;;;;5.45;1.35;;;8.80;87.40;;;;;;5134644;27;20520;-62
2022/11/23 03:40:55;;;;;;;3.03;1.23;;;8.90;87.40;;;;;;5134289;27;20019;-62
2022/11/23 03:43:21;;;;;;;5.38;1.13;;;8.80;87.00;;;;;;5134658;27;20023;-60
2022/11/23 03:45:46;;;;;;;1.83;1.00;;;8.80;87.00;;;;;;5134368;27;20045;-61
2022/11/23 03:48:13;;;;;;;2.55;1.45;;;8.90;86.90;;;;;;5134180;27;20023;-60
2022/11/23 03:50:38;;;;;;;5.95;1.67;;;8.80;87.20;;;;;;5134251;27;20031;-61
2022/11/23 03:53:05;;;;;;;4.05;2.00;;;8.80;87.70;;;;;;5134245;27;20530;-62
2022/11/23 03:55:31;;;;;;;6.25;1.52;;;8.80;88.50;;;;;;5134593;28;20023;-62
2022/11/23 03:57:58;;;;;;;6.40;1.85;;;8.60;89.10;;;;;;5134275;28;20043;-59
2022/11/23 04:00:25;;;;;;;5.45;1.85;;;8.50;89.60;;;;;;5134166;28;20068;-60
2022/11/23 04:02:50;;;;;;;11.18;2.88;;;8.40;90.20;;;;;;5134135;28;20516;-60
2022/11/23 04:05:16;;;;;;;5.85;1.50;;;8.40;90.70;;;;;;5134723;28;20023;-60
2022/11/23 04:07:42;;;;;;;3.65;2.20;;;8.40;91.30;;;;;;5134302;28;20024;-60
2022/11/23 04:10:08;;;;;;;7.75;2.13;;;8.40;91.40;;;;;;5134057;28;20023;-60
2022/11/23 04:12:33;;;;;;;8.95;2.08;;;8.30;91.60;;;;;;5134299;28;20463;-60
2022/11/23 04:14:59;;;;;;;8.07;2.03;;;8.30;92.10;;;;;;5134082;28;20027;-60
2022/11/23 04:17:25;;;;;;;5.82;1.92;;;8.20;92.40;;;;;;5134294;28;20107;-60
2022/11/23 04:19:50;;;;;;;8.75;2.75;;;8.20;92.60;;;;;;5133986;28;20080;-60
2022/11/23 04:22:16;;;;;;;5.65;2.60;;;8.20;92.80;;;;;;5132731;28;20019;-60
2022/11/23 04:24:41;;;;;;;4.15;2.25;;;8.10;92.80;;;;;;5134076;28;20469;-60
2022/11/23 04:27:07;;;;;;;5.28;1.92;;;8.20;93.00;;;;;;5133958;28;20011;-61
2022/11/23 04:29:33;;;;;;;9.45;3.20;;;8.20;93.10;;;;;;5134045;28;20031;-62
2022/11/23 04:31:58;;;;;;;18.65;3.67;;;8.30;93.10;;;;;;5134008;28;20381;-62
2022/11/23 04:34:24;;;;;;;8.57;3.03;;;8.20;93.00;;;;;;5133800;28;20024;-62
2022/11/23 04:36:49;;;;;;;15.48;3.60;;;8.20;93.10;;;;;;5132583;28;20027;-60
2022/11/23 04:39:15;;;;;;;7.63;2.45;;;8.20;93.00;;;;;;5133760;28;20019;-61
2022/11/23 04:41:41;;;;;;;7.22;2.85;;;8.20;93.10;;;;;;5134066;28;20068;-60
2022/11/23 04:44:06;;;;;;;9.32;2.60;;;8.30;93.10;;;;;;5133772;28;20023;-60
2022/11/23 04:46:34;;;;;;;6.57;2.90;;;8.30;93.00;;;;;;5133733;28;20038;-60
2022/11/23 04:49:00;;;;;;;6.32;1.92;;;8.30;92.90;;;;;;5133949;28;20045;-60
2022/11/23 04:51:25;;;;;;;7.97;2.75;;;8.30;92.90;;;;;;5133744;28;20102;-60
2022/11/23 04:53:51;;;;;;;12.95;2.92;;;8.20;92.80;;;;;;5133457;28;20066;-60
2022/11/23 04:56:17;;;;;;;7.53;2.67;;;8.10;92.80;;;;;;5133628;28;20360;-60
2022/11/23 04:58:42;;;;;;;6.43;2.97;;;8.10;92.90;;;;;;5133660;28;20027;-61
2022/11/23 05:01:08;;;;;;;10.05;3.22;;;8.20;93.00;;;;;;5136492;27;20463;-61
2022/11/23 05:03:34;;;;;;;9.40;2.55;;;8.20;93.00;;;;;;5137437;27;20027;-62
2022/11/23 05:06:00;;;;;;;8.80;3.13;;;8.10;93.00;;;;;;5137308;27;20382;-62
2022/11/23 05:08:26;;;;;;;5.38;2.30;;;8.20;93.00;;;;;;5137236;27;20027;-61
2022/11/23 05:10:52;;;;;;;5.25;2.22;;;8.10;93.00;;;;;;5135985;27;20115;-61
2022/11/23 05:13:17;;;;;;;9.65;2.92;;;8.10;93.00;;;;;;5137062;27;20027;-61
2022/11/23 05:15:43;;;;;;;9.50;3.35;;;8.20;93.00;;;;;;5137298;27;20055;-62
2022/11/23 05:18:10;;;;;;;8.05;3.75;;;8.30;93.00;;;;;;5137161;27;20068;-62
2022/11/23 05:20:36;;;;;;;19.63;3.40;;;8.20;92.90;;;;;;5136954;27;20016;-62
2022/11/23 05:23:02;;;;;;;11.50;3.08;;;8.20;92.80;;;;;;5135815;27;20058;-62
2022/11/23 05:25:27;;;;;;;12.57;3.00;;;8.10;92.80;;;;;;5137009;27;20075;-62
2022/11/23 05:27:53;;;;;;;6.65;2.35;;;8.20;92.90;;;;;;5136875;27;20023;-61
2022/11/23 05:30:19;;;;;;;10.90;2.72;;;8.10;92.80;;;;;;5137018;27;20471;-61
2022/11/23 05:32:44;;;;;;;6.93;2.53;;;8.10;92.90;;;;;;5136900;27;20084;-62
2022/11/23 05:35:11;;;;;;;12.23;3.80;;;8.10;92.90;;;;;;5136713;27;20027;-61
2022/11/23 05:37:38;;;;;;;8.90;2.85;;;8.10;92.90;;;;;;5137004;27;20026;-60
2022/11/23 05:40:04;;;;;;;13.27;3.10;;;8.10;92.90;;;;;;5136699;27;20077;-62
2022/11/23 05:42:30;;;;;;;17.05;4.38;;;8.10;93.00;;;;;;5136570;27;20031;-62
2022/11/23 05:44:56;;;;;;;14.43;3.70;;;8.10;93.00;;;;;;5137122;27;20486;-62
2022/11/23 05:47:21;;;;;;;12.18;3.15;;;8.20;93.00;;;;;;5136650;27;20027;-62
2022/11/23 05:49:48;;;;;;;15.75;3.50;;;8.10;93.00;;;;;;5137525;27;20027;-61
2022/11/23 05:52:14;;;;;;;7.70;3.13;;;8.10;93.00;;;;;;5136402;27;20062;-61
2022/11/23 05:54:39;;;;;;;7.47;3.85;;;8.10;93.10;;;;;;5137551;27;20015;-65
2022/11/23 05:57:05;;;;;;;12.93;2.97;;;8.00;93.10;;;;;;5135038;27;20027;-61
2022/11/23 05:59:31;;;;;;;10.07;4.85;;;8.10;93.20;;;;;;5136691;27;20403;-61
2022/11/23 06:01:56;;;;;;;9.75;3.17;;;8.00;93.20;;;;;;5136296;27;20020;-61
2022/11/23 06:04:22;;;;;;;7.72;2.90;;;8.10;93.20;;;;;;5136425;27;20075;-62
2022/11/23 06:06:48;;;;;;;13.27;2.88;;;8.10;93.10;;;;;;5136263;27;20061;-62
2022/11/23 06:09:13;;;;;;;17.52;2.90;;;8.10;93.10;;;;;;5136200;27;20023;-62
2022/11/23 06:11:39;;;;;;;12.63;2.80;;;8.10;93.10;;;;;;5136079;27;20060;-63
2022/11/23 06:14:05;;;;;;;15.27;4.50;;;8.10;93.00;;;;;;5136197;27;20042;-62
2022/11/23 06:16:31;;;;;;;6.90;3.47;;;8.10;92.90;;;;;;5135471;27;20015;-62
2022/11/23 06:18:56;;;;;;;8.00;2.83;;;8.10;92.90;;;;;;5137002;27;20470;-62
2022/11/23 06:21:22;;;;;;;5.25;2.05;;;8.10;92.70;;;;;;5137245;27;20099;-62
2022/11/23 06:23:48;;;;;;;10.23;2.45;;;8.10;92.70;;;;;;5137099;27;20420;-63
2022/11/23 06:26:14;;;;;;;8.80;2.08;;;8.10;92.70;;;;;;5137741;27;20117;-64
2022/11/23 06:28:40;;;;;;;7.40;2.05;;;8.10;92.60;;;;;;5136473;27;20028;-62
2022/11/23 06:31:06;;;;;;;6.20;1.90;;;8.20;92.60;;;;;;5135872;27;20019;-62
2022/11/23 06:33:33;;;;;;;15.00;2.55;;;8.10;92.50;;;;;;5135705;27;20023;-60
2022/11/23 06:36:00;;;;;;;7.88;2.10;;;8.10;92.50;;;;;;5135446;27;20023;-62
2022/11/23 06:38:26;;;;;;;8.43;2.50;;;8.10;92.30;;;;;;5135798;27;20480;-61
2022/11/23 06:40:52;;;;;;;11.13;2.95;;;8.20;92.20;;;;;;5135248;27;20023;-61
2022/11/23 06:43:18;;;;;;;8.45;2.20;;;8.10;92.20;;;;;;5134054;27;20115;-60
2022/11/23 06:45:44;;;;;;;13.18;3.63;;;8.10;92.10;;;;;;5135539;27;20023;-62
2022/11/23 06:48:09;;;;;;;16.50;3.15;;;8.20;92.20;;;;;;5135666;27;20052;-61
2022/11/23 15:48:39;;;;;;;5.10;1.70;;;9.30;71.70;;;;;;5007893;27;20204;-50
2022/11/23 15:51:10;;;;;;;8.35;1.92;;;9.30;71.60;;;;;;5007080;28;20034;-53
2022/11/23 15:53:46;;;;;;;5.05;2.45;;;9.40;71.20;;;;;;5007607;28;20046;-53
2022/11/23 15:56:37;;;;;;;12.52;2.60;;;9.50;70.70;;;;;;5007258;28;20025;-50
2022/11/23 15:59:31;;;;;;;8.90;2.33;;;9.60;70.50;;;;;;5007274;28;20046;-50
2022/11/23 16:02:00;;;;;;;5.20;1.52;;;9.60;70.20;;;;;;5011350;28;20084;-49
2022/11/23 16:04:29;;;;;;;7.85;1.95;;;9.70;70.10;;;;;;5007249;28;20037;-49
2022/11/23 16:06:56;;;;;;;3.35;1.40;;;9.70;69.80;;;;;;5007649;28;20540;-49
2022/11/23 16:09:47;;;;;;;2.63;1.98;;;9.70;69.90;;;;;;5007238;28;20382;-49
2022/11/23 16:12:34;;;;;;;5.75;1.73;;;9.70;70.20;;;;;;5007298;28;20026;-50
2022/11/23 16:15:37;;;;;;;3.78;1.50;;;9.60;70.10;;;;;;5006817;28;20034;-51
2022/11/23 16:18:16;;;;;;;9.75;1.40;;;9.70;70.10;;;;;;5007188;28;20389;-52
2022/11/23 16:20:51;;;;;;;5.23;1.50;;;9.60;70.40;;;;;;5007176;28;20054;-49
2022/11/23 16:23:23;;;;;;;5.88;1.85;;;9.60;70.90;;;;;;5007612;28;20026;-48
2022/11/23 16:25:58;;;;;;;7.03;1.27;;;9.60;71.00;;;;;;5006837;28;20026;-50
2022/11/23 16:28:32;;;;;;;5.65;1.48;;;9.60;71.30;;;;;;5006601;28;20026;-52
2022/11/23 16:30:58;;;;;;;7.65;1.92;;;9.60;71.20;;;;;;5006718;28;20507;-51
2022/11/23 16:33:24;;;;;;;7.45;1.70;;;9.60;71.40;;;;;;5006661;28;20018;-50
2022/11/23 16:35:50;;;;;;;4.18;1.92;;;9.60;71.90;;;;;;5006194;28;20039;-49
2022/11/23 16:38:16;;;;;;;8.63;2.58;;;9.60;72.10;;;;;;5006268;28;20034;-53
2022/11/23 16:40:43;;;;;;;3.72;1.30;;;9.60;72.20;;;;;;5006352;28;20027;-50
2022/11/23 16:43:10;;;;;;;10.88;2.17;;;9.60;72.60;;;;;;5006260;28;20113;-52
2022/11/23 16:45:42;;;;;;;3.22;1.30;;;9.50;73.20;;;;;;5006427;28;20053;-51
2022/11/23 16:48:24;;;;;;;9.65;1.75;;;9.40;73.70;;;;;;5004899;28;20422;-50
2022/11/23 16:50:50;;;;;;;5.80;1.10;;;9.30;74.90;;;;;;5006612;28;20058;-51
2022/11/23 16:53:17;;;;;;;6.47;1.52;;;9.20;75.80;;;;;;5006532;28;20053;-50
2022/11/23 16:55:55;;;;;;;4.82;1.67;;;9.20;76.50;;;;;;5005206;28;20079;-53
2022/11/23 16:58:21;;;;;;;4.32;1.67;;;9.10;77.10;;;;;;5002327;28;20387;-53
2022/11/23 17:00:48;;;;;;;9.32;2.30;;;9.00;77.80;;;;;;4993650;28;20034;-52
2022/11/23 17:03:18;;;;;;;8.00;2.95;;;9.00;78.60;;;;;;4993395;28;20054;-51
2022/11/23 17:05:44;;;;;;;6.15;1.83;;;8.90;79.30;;;;;;4993370;28;20034;-50
2022/11/23 17:08:10;;;;;;;6.47;1.40;;;8.80;80.30;;;;;;4993051;28;20038;-50
2022/11/23 17:10:37;;;;;;;2.30;1.67;;;8.80;80.90;;;;;;4993021;28;20026;-52
2022/11/23 17:13:05;;;;;;;4.50;1.67;;;8.60;82.10;;;;;;4993182;28;20101;-51
2022/11/23 17:15:31;;;;;;;6.35;1.48;;;8.50;82.90;;;;;;4993307;28;20033;-51
2022/11/23 17:17:56;;;;;;;4.88;1.15;;;8.40;83.60;;;;;;4993376;28;20030;-51
2022/11/23 17:20:23;;;;;;;7.57;1.67;;;8.30;84.20;;;;;;4993008;28;20023;-50
2022/11/23 17:22:50;;;;;;;5.28;1.73;;;8.30;85.10;;;;;;4993357;28;20026;-53
2022/11/23 17:25:17;;;;;;;9.15;2.15;;;8.20;85.40;;;;;;4993340;28;20367;-50
2022/11/23 17:27:44;;;;;;;10.57;2.30;;;8.20;85.80;;;;;;4992888;28;20030;-52
2022/11/23 17:30:17;;;;;;;7.72;2.40;;;8.20;85.80;;;;;;4993239;28;20438;-51
2022/11/23 17:32:42;;;;;;;4.55;1.60;;;8.20;86.20;;;;;;4993602;28;20373;-50
2022/11/23 17:35:08;;;;;;;4.10;1.90;;;8.10;86.50;;;;;;4993267;28;20026;-50
2022/11/23 17:37:35;;;;;;;6.25;2.60;;;8.10;86.90;;;;;;4993325;28;20474;-50
2022/11/23 17:40:00;;;;;;;7.88;2.00;;;8.00;87.10;;;;;;4992846;28;20098;-51
2022/11/23 17:42:26;;;;;;;3.50;1.60;;;8.00;87.50;;;;;;4992738;28;20111;-50
2022/11/23 17:44:52;;;;;;;4.18;1.70;;;7.90;87.50;;;;;;4992836;28;20026;-52
2022/11/23 17:47:29;;;;;;;9.05;1.77;;;7.90;88.00;;;;;;4991077;28;20081;-50
2022/11/23 17:49:55;;;;;;;4.63;2.00;;;7.80;88.10;;;;;;4975666;28;20026;-50
2022/11/23 17:52:22;;;;;;;4.38;1.77;;;7.80;88.40;;;;;;4992643;28;20492;-50
2022/11/23 17:54:47;;;;;;;6.93;2.83;;;7.80;88.60;;;;;;4992809;28;20413;-52
2022/11/23 17:57:15;;;;;;;5.55;1.60;;;7.80;88.90;;;;;;4992631;28;20026;-51
2022/11/23 17:59:42;;;;;;;3.78;2.08;;;7.80;88.60;;;;;;4992270;28;20113;-52
2022/11/23 18:02:09;;;;;;;4.35;1.55;;;7.70;88.50;;;;;;4992428;28;20053;-48
2022/11/23 18:04:35;;;;;;;10.77;4.15;;;7.70;88.50;;;;;;4992303;28;20126;-48
2022/11/23 18:07:01;;;;;;;5.93;1.48;;;7.80;88.60;;;;;;4991856;28;20470;-52
2022/11/23 18:09:26;;;;;;;7.10;2.00;;;7.70;88.60;;;;;;4991971;28;20034;-50
2022/11/23 18:11:52;;;;;;;6.95;2.80;;;7.70;88.80;;;;;;4991216;28;20042;-50
2022/11/23 18:14:18;;;;;;;3.72;1.92;;;7.70;88.70;;;;;;4992456;28;20031;-49
2022/11/23 18:16:44;;;;;;;3.40;2.45;;;7.70;88.80;;;;;;4990981;28;20470;-50
2022/11/23 18:19:10;;;;;;;8.25;2.33;;;7.70;88.70;;;;;;4992141;28;20034;-50
2022/11/23 18:21:36;;;;;;;6.13;2.58;;;7.70;88.70;;;;;;4992123;28;20027;-52
2022/11/23 18:24:02;;;;;;;6.03;1.98;;;7.70;88.40;;;;;;4992240;28;20026;-49
2022/11/23 18:26:29;;;;;;;7.90;2.03;;;7.70;88.60;;;;;;4992042;28;20037;-48
2022/11/23 18:28:56;;;;;;;6.95;2.05;;;7.70;88.50;;;;;;4991907;28;20105;-49
2022/11/23 18:31:22;;;;;;;3.00;2.25;;;7.70;88.50;;;;;;4992379;28;20033;-52
2022/11/23 18:33:48;;;;;;;5.45;1.58;;;7.80;88.40;;;;;;4990759;28;20026;-48
2022/11/23 18:36:14;;;;;;;6.07;2.22;;;7.80;88.00;;;;;;4992032;28;20378;-51
2022/11/23 18:38:43;;;;;;;10.35;1.52;;;7.80;88.00;;;;;;4990694;28;20147;-51
2022/11/23 18:41:09;;;;;;;6.53;2.75;;;7.80;87.90;;;;;;4991976;28;20014;-51
2022/11/23 18:43:35;;;;;;;6.20;2.10;;;7.80;88.00;;;;;;4992391;28;20023;-53
2022/11/23 18:46:05;;;;;;;3.60;1.90;;;7.80;88.00;;;;;;4992215;28;20454;-52
2022/11/23 18:48:30;;;;;;;2.83;1.30;;;7.80;88.00;;;;;;4990401;28;20522;-54
2022/11/23 18:50:56;;;;;;;3.92;1.95;;;7.80;88.10;;;;;;4991814;28;20057;-52
2022/11/23 18:53:22;;;;;;;2.25;0.95;;;7.80;88.00;;;;;;4991817;28;20118;-51
2022/11/23 18:55:48;;;;;;;4.35;2.35;;;7.80;87.60;;;;;;4991848;28;20033;-53
2022/11/23 18:58:14;;;;;;;6.07;1.60;;;7.80;87.60;;;;;;4991955;28;20444;-53
2022/11/23 19:00:40;;;;;;;7.95;2.70;;;7.80;87.70;;;;;;4990616;28;20031;-51
2022/11/23 19:03:06;;;;;;;3.28;1.48;;;7.80;87.60;;;;;;4990246;28;20031;-54
2022/11/23 19:05:33;;;;;;;2.42;1.33;;;7.80;87.50;;;;;;4991715;28;20061;-51
2022/11/23 19:08:03;;;;;;;7.88;1.33;;;7.80;87.40;;;;;;4991432;28;20542;-53
2022/11/23 19:10:35;;;;;;;2.20;1.02;;;7.70;87.40;;;;;;4991576;28;20030;-51
2022/11/23 19:13:01;;;;;;;8.32;1.75;;;7.80;87.50;;;;;;4991641;28;20473;-51
2022/11/23 19:15:27;;;;;;;3.67;1.42;;;7.80;87.30;;;;;;4991700;28;20090;-51
2022/11/23 19:17:52;;;;;;;3.88;1.35;;;7.80;87.30;;;;;;4991595;28;20031;-52
2022/11/23 19:20:20;;;;;;;2.95;1.58;;;7.80;87.40;;;;;;4989843;28;20027;-49
2022/11/23 19:22:46;;;;;;;4.18;1.65;;;7.80;87.00;;;;;;4990992;28;20105;-59
2022/11/23 19:25:12;;;;;;;8.43;2.70;;;7.90;87.10;;;;;;4991234;28;20121;-51
2022/11/23 19:27:37;;;;;;;4.32;1.48;;;7.80;86.90;;;;;;4992082;28;20038;-54
2022/11/23 19:30:04;;;;;;;5.85;2.50;;;7.80;87.20;;;;;;4991636;28;20105;-51
2022/11/23 19:32:33;;;;;;;5.55;1.88;;;7.80;87.10;;;;;;4991167;28;20026;-52
2022/11/23 19:34:59;;;;;;;4.68;1.30;;;7.80;87.10;;;;;;4994299;28;20022;-52
2022/11/23 19:37:25;;;;;;;5.85;1.45;;;7.80;87.10;;;;;;4993214;28;20026;-55
2022/11/23 19:39:50;;;;;;;2.72;1.67;;;7.90;87.00;;;;;;4991028;28;20474;-51
2022/11/23 19:42:16;;;;;;;2.03;1.35;;;8.00;87.00;;;;;;4991106;28;20027;-52
2022/11/23 19:44:42;;;;;;;3.20;1.08;;;7.90;87.00;;;;;;4991161;28;20040;-51
2022/11/23 19:47:07;;;;;;;3.45;1.42;;;7.90;87.00;;;;;;4991341;28;20137;-51
2022/11/23 19:49:33;;;;;;;2.45;1.48;;;8.10;87.00;;;;;;4991119;28;20030;-49
2022/11/23 19:51:59;;;;;;;4.55;1.90;;;8.10;86.90;;;;;;4990193;28;20076;-50
2022/11/23 19:54:24;;;;;;;4.13;1.88;;;8.10;86.90;;;;;;4989640;28;20555;-52
2022/11/23 19:56:50;;;;;;;4.13;1.35;;;8.10;87.10;;;;;;4990862;28;20046;-52
2022/11/23 19:59:16;;;;;;;4.45;2.00;;;8.20;87.10;;;;;;4992161;28;20081;-52
2022/11/23 20:01:41;;;;;;;6.28;2.42;;;8.20;87.00;;;;;;4990870;28;20121;-53
2022/11/23 20:04:09;;;;;;;4.75;2.88;;;8.20;86.90;;;;;;4989558;28;20524;-54
2022/11/23 20:06:36;;;;;;;7.45;2.70;;;8.20;87.00;;;;;;4990815;28;20427;-50
2022/11/23 20:09:15;;;;;;;4.60;2.65;;;8.30;87.10;;;;;;4990830;28;20367;-51
2022/11/23 20:11:41;;;;;;;3.25;2.58;;;8.20;87.10;;;;;;4991166;28;20060;-50
2022/11/23 20:14:09;;;;;;;6.72;2.17;;;8.30;87.10;;;;;;4990919;28;20072;-49
2022/11/23 20:16:35;;;;;;;5.78;1.65;;;8.30;87.20;;;;;;4990591;28;20503;-51
2022/11/23 20:19:04;;;;;;;7.85;2.05;;;8.20;87.40;;;;;;4990830;28;20058;-51
2022/11/23 20:21:31;;;;;;;7.22;2.25;;;8.20;87.50;;;;;;4990895;28;20049;-51
2022/11/23 20:24:01;;;;;;;6.65;1.80;;;8.30;87.40;;;;;;4990853;28;20023;-51
2022/11/23 20:26:28;;;;;;;6.68;2.58;;;8.30;87.40;;;;;;4989548;28;20018;-51
2022/11/23 20:28:56;;;;;;;4.57;2.05;;;8.30;87.30;;;;;;4990917;28;20398;-51
2022/11/23 20:31:24;;;;;;;8.70;3.10;;;8.30;87.30;;;;;;4990589;28;20027;-52
2022/11/23 20:33:51;;;;;;;8.18;2.00;;;8.40;87.30;;;;;;4991886;28;20052;-49
2022/11/23 20:36:22;;;;;;;6.10;2.45;;;8.30;87.40;;;;;;4992692;28;20023;-53
2022/11/23 20:38:48;;;;;;;5.13;2.38;;;8.40;87.50;;;;;;4993908;28;20127;-51
2022/11/23 20:41:17;;;;;;;8.40;2.45;;;8.40;87.50;;;;;;4994013;28;20050;-53
2022/11/23 20:43:44;;;;;;;7.38;2.85;;;8.50;87.20;;;;;;4994020;28;20023;-52
2022/11/23 20:46:10;;;;;;;7.57;3.75;;;8.50;87.30;;;;;;4993846;28;20107;-53
2022/11/23 20:48:38;;;;;;;11.75;2.80;;;8.60;87.20;;;;;;4993694;28;20042;-51
2022/11/23 20:51:04;;;;;;;10.60;3.85;;;8.70;87.20;;;;;;4994115;28;20023;-55
2022/11/23 20:53:30;;;;;;;6.03;2.65;;;8.70;87.30;;;;;;4994075;28;20031;-52
2022/11/23 20:56:15;;;;;;;4.55;2.47;;;8.80;87.10;;;;;;4994072;28;20030;-53
2022/11/23 20:58:41;;;;;;;12.55;3.17;;;8.80;87.00;;;;;;4994266;28;20026;-54
2022/11/23 21:01:08;;;;;;;10.95;2.80;;;8.80;86.90;;;;;;4993649;28;20068;-52
2022/11/23 21:03:35;;;;;;;14.38;3.28;;;8.70;87.10;;;;;;4993828;28;20026;-52
2022/11/23 21:06:05;;;;;;;10.75;3.15;;;8.70;87.30;;;;;;4993625;28;20038;-52
2022/11/23 21:08:31;;;;;;;9.88;2.67;;;8.60;87.50;;;;;;4993250;28;20042;-52
2022/11/23 21:14:20;;;;;;;21.95;4.47;;;8.60;87.80;;;;;;4993912;28;20037;-48
2022/11/23 21:16:54;;;;;;;9.52;2.63;;;8.50;87.90;;;;;;4993723;28;20583;-48
2022/11/23 21:19:22;;;;;;;14.52;2.20;;;8.50;87.80;;;;;;4993372;28;20109;-52
2022/11/23 21:21:48;;;;;;;15.15;3.10;;;8.40;88.10;;;;;;4993368;28;20076;-53
2022/11/23 21:24:14;;;;;;;15.73;2.78;;;8.40;88.10;;;;;;4993316;28;20466;-51
2022/11/23 21:26:40;;;;;;;11.52;4.20;;;8.30;88.50;;;;;;4993372;28;20045;-52
2022/11/23 21:29:10;;;;;;;8.15;3.10;;;8.30;88.80;;;;;;4993274;28;20077;-50
2022/11/23 21:31:40;;;;;;;10.30;3.73;;;8.30;88.70;;;;;;4993549;28;20061;-49
2022/11/23 21:34:09;;;;;;;17.40;3.40;;;8.30;88.60;;;;;;4993336;28;20029;-50
2022/11/23 21:36:37;;;;;;;7.60;2.75;;;8.10;88.90;;;;;;4993576;28;20046;-55
2022/11/23 21:39:07;;;;;;;9.55;2.35;;;8.10;89.10;;;;;;4993172;28;20576;-53
2022/11/23 21:41:34;;;;;;;14.93;2.72;;;8.10;89.10;;;;;;4992992;28;20031;-49
2022/11/23 21:44:00;;;;;;;21.05;4.63;;;8.20;89.10;;;;;;4993002;28;20111;-51
2022/11/23 21:46:26;;;;;;;15.88;5.68;;;8.10;89.10;;;;;;4992508;28;20073;-50
2022/11/23 21:48:54;;;;;;;20.25;3.58;;;8.10;89.10;;;;;;4992890;28;20038;-51
2022/11/23 21:51:20;;;;;;;16.30;4.00;;;8.20;89.50;;;;;;4993178;28;20478;-51
2022/11/23 21:53:46;;;;;;;8.35;2.75;;;8.20;89.10;;;;;;4991632;28;20022;-50
2022/11/23 21:56:14;;;;;;;12.32;2.80;;;8.20;89.10;;;;;;4992608;28;20145;-52
2022/11/23 21:58:40;;;;;;;13.25;3.45;;;8.10;89.30;;;;;;4992790;28;20105;-53
2022/11/23 22:01:22;;;;;;;14.30;3.30;;;8.20;89.20;;;;;;4992591;28;20057;-51